sensor_id;sensor_type;location;lat;lon;timestamp;P1;durP1;ratioP1;P2;durP2;ratioP2
14708;SDS011;7445;50.774;4.944;2022-08-07T09:20:54;4.22;;;3.58;;
14708;SDS011;7445;50.774;4.944;2022-08-07T09:28:51;2.40;;;2.20;;
14708;SDS011;7445;50.774;4.944;2022-08-07T09:31:22;2.33;;;2.13;;
14708;SDS011;7445;50.774;4.944;2022-08-07T09:36:23;2.70;;;2.00;;
14708;SDS011;7445;50.774;4.944;2022-08-07T09:39:02;3.50;;;3.20;;
14708;SDS011;7445;50.774;4.944;2022-08-07T09:50:24;3.85;;;2.15;;
14708;SDS011;7445;50.774;4.944;2022-08-07T09:52:59;3.13;;;2.22;;
14708;SDS011;7445;50.774;4.944;2022-08-07T10:06:46;2.30;;;2.05;;
14708;SDS011;7445;50.774;4.944;2022-08-07T10:30:42;2.30;;;2.10;;
14708;SDS011;7445;50.774;4.944;2022-08-07T10:41:30;2.08;;;1.88;;
14708;SDS011;7445;50.774;4.944;2022-08-07T10:47:18;2.55;;;2.00;;
14708;SDS011;7445;50.774;4.944;2022-08-07T10:49:52;2.33;;;2.13;;
14708;SDS011;7445;50.774;4.944;2022-08-07T10:52:44;4.28;;;1.50;;
14708;SDS011;7445;50.774;4.944;2022-08-07T10:55:17;1.42;;;1.33;;
14708;SDS011;7445;50.774;4.944;2022-08-07T10:57:50;1.85;;;1.70;;
14708;SDS011;7445;50.774;4.944;2022-08-07T11:00:30;2.58;;;2.38;;
14708;SDS011;7445;50.774;4.944;2022-08-07T11:03:10;2.70;;;1.50;;
14708;SDS011;7445;50.774;4.944;2022-08-07T11:05:48;5.30;;;2.20;;
14708;SDS011;7445;50.774;4.944;2022-08-07T11:11:13;1.90;;;1.70;;
14708;SDS011;7445;50.774;4.944;2022-08-07T11:13:48;3.05;;;2.22;;
14708;SDS011;7445;50.774;4.944;2022-08-07T11:16:26;5.60;;;2.30;;
14708;SDS011;7445;50.774;4.944;2022-08-07T11:24:52;3.50;;;1.98;;
14708;SDS011;7445;50.774;4.944;2022-08-07T11:30:18;1.48;;;1.38;;
14708;SDS011;7445;50.774;4.944;2022-08-07T11:41:27;1.98;;;1.88;;
14708;SDS011;7445;50.774;4.944;2022-08-07T11:44:08;3.13;;;2.58;;
14708;SDS011;7445;50.774;4.944;2022-08-07T11:47:11;6.30;;;2.92;;
14708;SDS011;7445;50.774;4.944;2022-08-07T12:00:50;3.20;;;2.40;;
14708;SDS011;7445;50.774;4.944;2022-08-07T12:03:46;2.50;;;1.98;;
14708;SDS011;7445;50.774;4.944;2022-08-07T12:12:24;2.63;;;1.95;;
14708;SDS011;7445;50.774;4.944;2022-08-07T12:15:01;2.15;;;2.05;;
14708;SDS011;7445;50.774;4.944;2022-08-07T12:17:59;3.55;;;2.20;;
14708;SDS011;7445;50.774;4.944;2022-08-07T12:26:11;2.60;;;1.80;;
14708;SDS011;7445;50.774;4.944;2022-08-07T12:29:00;5.88;;;2.70;;
14708;SDS011;7445;50.774;4.944;2022-08-07T12:31:43;2.72;;;2.08;;
14708;SDS011;7445;50.774;4.944;2022-08-07T12:34:13;2.67;;;2.00;;
14708;SDS011;7445;50.774;4.944;2022-08-07T12:36:42;2.88;;;1.88;;
14708;SDS011;7445;50.774;4.944;2022-08-07T12:39:09;1.50;;;1.40;;
14708;SDS011;7445;50.774;4.944;2022-08-07T12:41:36;2.83;;;1.70;;
14708;SDS011;7445;50.774;4.944;2022-08-07T12:44:04;3.28;;;1.65;;
14708;SDS011;7445;50.774;4.944;2022-08-07T12:46:42;1.75;;;1.45;;
14708;SDS011;7445;50.774;4.944;2022-08-07T12:49:32;2.20;;;1.63;;
14708;SDS011;7445;50.774;4.944;2022-08-07T12:52:05;1.60;;;1.50;;
14708;SDS011;7445;50.774;4.944;2022-08-07T12:57:34;4.15;;;2.15;;
14708;SDS011;7445;50.774;4.944;2022-08-07T13:00:03;2.67;;;2.20;;
14708;SDS011;7445;50.774;4.944;2022-08-07T13:05:24;1.60;;;1.50;;
14708;SDS011;7445;50.774;4.944;2022-08-07T13:08:28;1.17;;;0.98;;
14708;SDS011;7445;50.774;4.944;2022-08-07T13:14:06;1.48;;;1.38;;
14708;SDS011;7445;50.774;4.944;2022-08-07T13:16:47;2.03;;;1.30;;
14708;SDS011;7445;50.774;4.944;2022-08-07T13:28:03;3.42;;;1.90;;
14708;SDS011;7445;50.774;4.944;2022-08-07T13:30:34;1.45;;;1.35;;
14708;SDS011;7445;50.774;4.944;2022-08-07T13:33:06;2.63;;;1.70;;
14708;SDS011;7445;50.774;4.944;2022-08-07T13:35:49;1.63;;;1.52;;
14708;SDS011;7445;50.774;4.944;2022-08-07T13:38:41;2.60;;;2.10;;
14708;SDS011;7445;50.774;4.944;2022-08-07T13:44:00;2.15;;;1.50;;
14708;SDS011;7445;50.774;4.944;2022-08-07T13:46:29;1.60;;;1.50;;
14708;SDS011;7445;50.774;4.944;2022-08-07T13:48:57;2.40;;;1.63;;
14708;SDS011;7445;50.774;4.944;2022-08-07T13:51:26;2.35;;;1.60;;
14708;SDS011;7445;50.774;4.944;2022-08-07T13:53:55;2.47;;;1.98;;
14708;SDS011;7445;50.774;4.944;2022-08-07T13:56:24;2.17;;;1.63;;
14708;SDS011;7445;50.774;4.944;2022-08-07T13:58:52;2.25;;;1.85;;
14708;SDS011;7445;50.774;4.944;2022-08-07T14:01:36;1.33;;;1.30;;
14708;SDS011;7445;50.774;4.944;2022-08-07T14:04:14;4.50;;;2.50;;
14708;SDS011;7445;50.774;4.944;2022-08-07T14:06:45;3.72;;;2.53;;
14708;SDS011;7445;50.774;4.944;2022-08-07T14:09:19;2.25;;;2.00;;
14708;SDS011;7445;50.774;4.944;2022-08-07T14:11:57;5.55;;;2.42;;
14708;SDS011;7445;50.774;4.944;2022-08-07T14:14:27;3.92;;;1.98;;
14708;SDS011;7445;50.774;4.944;2022-08-07T14:16:55;1.75;;;1.65;;
14708;SDS011;7445;50.774;4.944;2022-08-07T14:19:37;3.38;;;1.60;;
14708;SDS011;7445;50.774;4.944;2022-08-07T14:22:26;3.13;;;1.60;;
14708;SDS011;7445;50.774;4.944;2022-08-07T14:24:59;1.98;;;1.67;;
14708;SDS011;7445;50.774;4.944;2022-08-07T14:27:40;1.95;;;1.83;;
14708;SDS011;7445;50.774;4.944;2022-08-07T14:30:10;1.63;;;1.52;;
14708;SDS011;7445;50.774;4.944;2022-08-07T14:32:41;1.42;;;1.33;;
14708;SDS011;7445;50.774;4.944;2022-08-07T14:35:19;3.40;;;2.08;;
14708;SDS011;7445;50.774;4.944;2022-08-07T14:37:48;2.70;;;2.50;;
14708;SDS011;7445;50.774;4.944;2022-08-07T14:40:22;2.33;;;1.90;;
14708;SDS011;7445;50.774;4.944;2022-08-07T14:43:00;2.83;;;2.25;;
14708;SDS011;7445;50.774;4.944;2022-08-07T14:45:30;2.60;;;2.30;;
14708;SDS011;7445;50.774;4.944;2022-08-07T14:48:04;3.15;;;2.10;;
14708;SDS011;7445;50.774;4.944;2022-08-07T14:50:32;2.78;;;2.05;;
14708;SDS011;7445;50.774;4.944;2022-08-07T14:52:59;2.05;;;1.95;;
14708;SDS011;7445;50.774;4.944;2022-08-07T14:55:29;2.80;;;2.42;;
14708;SDS011;7445;50.774;4.944;2022-08-07T14:57:57;2.05;;;1.95;;
14708;SDS011;7445;50.774;4.944;2022-08-07T15:00:33;3.22;;;1.92;;
14708;SDS011;7445;50.774;4.944;2022-08-07T15:03:04;2.65;;;2.45;;
14708;SDS011;7445;50.774;4.944;2022-08-07T15:05:32;1.80;;;1.70;;
14708;SDS011;7445;50.774;4.944;2022-08-07T15:07:58;2.30;;;2.10;;
14708;SDS011;7445;50.774;4.944;2022-08-07T15:10:27;2.40;;;2.20;;
14708;SDS011;7445;50.774;4.944;2022-08-07T15:12:54;4.50;;;1.88;;
14708;SDS011;7445;50.774;4.944;2022-08-07T15:15:34;2.47;;;2.28;;
14708;SDS011;7445;50.774;4.944;2022-08-07T15:18:07;2.05;;;1.95;;
14708;SDS011;7445;50.774;4.944;2022-08-07T15:20:37;2.22;;;2.03;;
14708;SDS011;7445;50.774;4.944;2022-08-07T15:23:06;3.20;;;2.35;;
14708;SDS011;7445;50.774;4.944;2022-08-07T15:25:36;2.33;;;2.13;;
14708;SDS011;7445;50.774;4.944;2022-08-07T15:28:05;2.00;;;1.90;;
14708;SDS011;7445;50.774;4.944;2022-08-07T15:30:32;2.00;;;1.90;;
14708;SDS011;7445;50.774;4.944;2022-08-07T15:33:00;2.30;;;2.10;;
14708;SDS011;7445;50.774;4.944;2022-08-07T15:35:28;6.45;;;2.45;;
14708;SDS011;7445;50.774;4.944;2022-08-07T15:37:57;2.20;;;2.00;;
14708;SDS011;7445;50.774;4.944;2022-08-07T15:40:28;2.25;;;1.98;;
14708;SDS011;7445;50.774;4.944;2022-08-07T15:42:59;2.42;;;2.22;;
14708;SDS011;7445;50.774;4.944;2022-08-07T15:45:37;3.22;;;2.92;;
14708;SDS011;7445;50.774;4.944;2022-08-07T15:50:38;3.40;;;2.20;;
14708;SDS011;7445;50.774;4.944;2022-08-07T15:53:18;2.40;;;2.10;;
14708;SDS011;7445;50.774;4.944;2022-08-07T15:56:34;2.30;;;2.10;;
14708;SDS011;7445;50.774;4.944;2022-08-07T15:59:06;2.85;;;2.55;;
14708;SDS011;7445;50.774;4.944;2022-08-07T16:01:43;3.22;;;2.58;;
14708;SDS011;7445;50.774;4.944;2022-08-07T16:04:15;2.25;;;2.15;;
14708;SDS011;7445;50.774;4.944;2022-08-07T16:28:41;3.78;;;2.95;;
14708;SDS011;7445;50.774;4.944;2022-08-07T16:33:49;3.85;;;2.58;;
14708;SDS011;7445;50.774;4.944;2022-08-07T16:41:58;3.80;;;2.30;;
14708;SDS011;7445;50.774;4.944;2022-08-07T16:44:43;3.50;;;2.20;;
14708;SDS011;7445;50.774;4.944;2022-08-07T16:55:25;2.70;;;2.50;;
14708;SDS011;7445;50.774;4.944;2022-08-07T16:58:04;2.78;;;2.58;;
14708;SDS011;7445;50.774;4.944;2022-08-07T17:03:26;5.43;;;3.05;;
14708;SDS011;7445;50.774;4.944;2022-08-07T17:09:10;3.03;;;2.70;;
14708;SDS011;7445;50.774;4.944;2022-08-07T17:14:12;3.42;;;3.13;;
14708;SDS011;7445;50.774;4.944;2022-08-07T17:19:21;3.22;;;3.00;;
14708;SDS011;7445;50.774;4.944;2022-08-07T17:22:06;2.83;;;2.63;;
14708;SDS011;7445;50.774;4.944;2022-08-07T17:24:46;4.07;;;3.00;;
14708;SDS011;7445;50.774;4.944;2022-08-07T17:30:22;2.40;;;2.20;;
14708;SDS011;7445;50.774;4.944;2022-08-07T17:38:12;2.70;;;2.50;;
14708;SDS011;7445;50.774;4.944;2022-08-07T17:43:30;4.38;;;2.40;;
14708;SDS011;7445;50.774;4.944;2022-08-07T17:46:07;3.33;;;2.30;;
14708;SDS011;7445;50.774;4.944;2022-08-07T17:48:43;3.00;;;2.80;;
14708;SDS011;7445;50.774;4.944;2022-08-07T17:51:26;2.63;;;2.42;;
14708;SDS011;7445;50.774;4.944;2022-08-07T17:54:02;7.45;;;3.10;;
14708;SDS011;7445;50.774;4.944;2022-08-07T17:57:02;2.95;;;2.50;;
14708;SDS011;7445;50.774;4.944;2022-08-07T18:02:13;3.10;;;2.53;;
14708;SDS011;7445;50.774;4.944;2022-08-07T18:07:51;3.70;;;2.58;;
14708;SDS011;7445;50.774;4.944;2022-08-07T18:10:32;3.33;;;2.47;;
14708;SDS011;7445;50.774;4.944;2022-08-07T18:15:54;4.03;;;2.60;;
14708;SDS011;7445;50.774;4.944;2022-08-07T18:18:24;4.00;;;3.33;;
14708;SDS011;7445;50.774;4.944;2022-08-07T18:20:58;2.92;;;2.72;;
14708;SDS011;7445;50.774;4.944;2022-08-07T18:26:04;6.05;;;2.83;;
14708;SDS011;7445;50.774;4.944;2022-08-07T18:28:34;2.78;;;2.58;;
14708;SDS011;7445;50.774;4.944;2022-08-07T18:31:22;2.63;;;2.42;;
14708;SDS011;7445;50.774;4.944;2022-08-07T18:44:48;2.58;;;1.90;;
14708;SDS011;7445;50.774;4.944;2022-08-07T18:47:24;2.20;;;2.10;;
14708;SDS011;7445;50.774;4.944;2022-08-07T18:59:45;2.63;;;1.95;;
14708;SDS011;7445;50.774;4.944;2022-08-07T19:10:17;3.38;;;3.15;;
14708;SDS011;7445;50.774;4.944;2022-08-07T19:12:57;2.45;;;2.25;;
14708;SDS011;7445;50.774;4.944;2022-08-07T19:15:33;3.17;;;2.55;;
14708;SDS011;7445;50.774;4.944;2022-08-07T19:18:19;2.78;;;2.10;;
14708;SDS011;7445;50.774;4.944;2022-08-07T19:20:50;5.65;;;2.42;;
14708;SDS011;7445;50.774;4.944;2022-08-07T19:23:26;2.47;;;2.28;;
14708;SDS011;7445;50.774;4.944;2022-08-07T19:25:55;2.20;;;2.10;;
14708;SDS011;7445;50.774;4.944;2022-08-07T19:28:22;3.10;;;2.47;;
14708;SDS011;7445;50.774;4.944;2022-08-07T19:30:56;2.35;;;1.98;;
14708;SDS011;7445;50.774;4.944;2022-08-07T19:33:33;2.85;;;2.65;;
14708;SDS011;7445;50.774;4.944;2022-08-07T19:36:03;4.03;;;2.55;;
14708;SDS011;7445;50.774;4.944;2022-08-07T19:38:31;2.92;;;2.67;;
14708;SDS011;7445;50.774;4.944;2022-08-07T19:40:59;3.10;;;2.00;;
14708;SDS011;7445;50.774;4.944;2022-08-07T19:43:29;4.00;;;2.78;;
14708;SDS011;7445;50.774;4.944;2022-08-07T19:45:57;2.70;;;2.42;;
14708;SDS011;7445;50.774;4.944;2022-08-07T19:48:39;2.60;;;2.40;;
14708;SDS011;7445;50.774;4.944;2022-08-07T19:51:08;5.07;;;3.13;;
14708;SDS011;7445;50.774;4.944;2022-08-07T19:53:36;3.47;;;3.17;;
14708;SDS011;7445;50.774;4.944;2022-08-07T19:56:05;3.27;;;2.97;;
14708;SDS011;7445;50.774;4.944;2022-08-07T19:58:34;5.07;;;3.27;;
14708;SDS011;7445;50.774;4.944;2022-08-07T20:01:02;4.43;;;4.03;;
14708;SDS011;7445;50.774;4.944;2022-08-07T20:03:29;4.30;;;3.50;;
14708;SDS011;7445;50.774;4.944;2022-08-07T20:05:57;4.30;;;4.00;;
14708;SDS011;7445;50.774;4.944;2022-08-07T20:08:28;5.27;;;3.93;;
14708;SDS011;7445;50.774;4.944;2022-08-07T20:10:57;6.33;;;4.23;;
14708;SDS011;7445;50.774;4.944;2022-08-07T20:13:47;5.60;;;3.60;;
14708;SDS011;7445;50.774;4.944;2022-08-07T20:16:23;3.90;;;3.60;;
14708;SDS011;7445;50.774;4.944;2022-08-07T20:18:51;6.50;;;3.80;;
14708;SDS011;7445;50.774;4.944;2022-08-07T20:21:18;4.83;;;4.43;;
14708;SDS011;7445;50.774;4.944;2022-08-07T20:23:46;4.37;;;3.77;;
14708;SDS011;7445;50.774;4.944;2022-08-07T20:26:32;4.43;;;4.07;;
14708;SDS011;7445;50.774;4.944;2022-08-07T20:29:00;5.20;;;4.70;;
14708;SDS011;7445;50.774;4.944;2022-08-07T20:31:28;7.10;;;3.90;;
14708;SDS011;7445;50.774;4.944;2022-08-07T20:33:55;4.97;;;4.53;;
14708;SDS011;7445;50.774;4.944;2022-08-07T20:36:22;6.73;;;5.17;;
14708;SDS011;7445;50.774;4.944;2022-08-07T20:38:52;4.33;;;4.00;;
14708;SDS011;7445;50.774;4.944;2022-08-07T20:41:21;4.73;;;4.00;;
14708;SDS011;7445;50.774;4.944;2022-08-07T20:43:50;4.60;;;4.03;;
14708;SDS011;7445;50.774;4.944;2022-08-07T20:46:18;4.47;;;3.90;;
14708;SDS011;7445;50.774;4.944;2022-08-07T20:48:46;9.73;;;5.00;;
14708;SDS011;7445;50.774;4.944;2022-08-07T20:51:13;5.43;;;4.93;;
14708;SDS011;7445;50.774;4.944;2022-08-07T20:53:39;4.43;;;4.03;;
14708;SDS011;7445;50.774;4.944;2022-08-07T20:56:07;4.87;;;4.40;;
14708;SDS011;7445;50.774;4.944;2022-08-07T20:58:35;4.93;;;4.53;;
14708;SDS011;7445;50.774;4.944;2022-08-07T21:01:05;6.43;;;5.10;;
14708;SDS011;7445;50.774;4.944;2022-08-07T21:03:34;5.20;;;4.70;;
14708;SDS011;7445;50.774;4.944;2022-08-07T21:06:06;4.80;;;4.20;;
14708;SDS011;7445;50.774;4.944;2022-08-07T21:08:39;4.80;;;4.40;;
14708;SDS011;7445;50.774;4.944;2022-08-07T21:11:13;4.67;;;4.30;;
14708;SDS011;7445;50.774;4.944;2022-08-07T21:13:45;4.63;;;4.23;;
14708;SDS011;7445;50.774;4.944;2022-08-07T21:16:16;4.33;;;3.93;;
14708;SDS011;7445;50.774;4.944;2022-08-07T21:18:44;5.37;;;4.87;;
14708;SDS011;7445;50.774;4.944;2022-08-07T21:21:13;5.17;;;4.77;;
14708;SDS011;7445;50.774;4.944;2022-08-07T21:26:39;11.10;;;4.97;;
14708;SDS011;7445;50.774;4.944;2022-08-07T21:29:30;5.23;;;4.73;;
14708;SDS011;7445;50.774;4.944;2022-08-07T21:32:22;5.13;;;4.63;;
14708;SDS011;7445;50.774;4.944;2022-08-07T21:35:00;6.45;;;4.40;;
14708;SDS011;7445;50.774;4.944;2022-08-07T21:45:22;5.53;;;4.53;;
